createdAt,value
2023-02-16T00:00:49.913Z,5.88
2023-02-16T00:03:21.754Z,5.60
2023-02-16T00:05:49.714Z,6.50
2023-02-16T00:08:16.345Z,6.18
2023-02-16T00:10:43.387Z,5.72
2023-02-16T00:13:25.150Z,5.97
2023-02-16T00:15:51.657Z,5.90
2023-02-16T00:18:21.074Z,6.07
2023-02-16T00:20:50.238Z,7.20
2023-02-16T00:23:17.166Z,6.07
2023-02-16T00:25:43.730Z,6.13
2023-02-16T00:28:17.936Z,5.82
2023-02-16T00:30:45.407Z,6.22
2023-02-16T00:33:19.077Z,4.80
2023-02-16T00:35:45.773Z,5.47
2023-02-16T00:38:13.439Z,5.05
2023-02-16T00:40:41.585Z,5.35
2023-02-16T00:43:09.476Z,4.85
2023-02-16T00:45:38.248Z,5.40
2023-02-16T00:48:04.983Z,5.95
2023-02-16T00:50:33.450Z,5.30
2023-02-16T00:53:01.135Z,5.63
2023-02-16T00:55:31.548Z,4.78
2023-02-16T00:58:18.898Z,5.20
2023-02-16T01:00:54.365Z,5.13
2023-02-16T01:03:24.997Z,5.00
2023-02-16T01:05:51.988Z,4.35
2023-02-16T01:08:18.530Z,4.80
2023-02-16T01:10:45.444Z,5.22
2023-02-16T01:13:13.248Z,5.93
2023-02-16T01:15:40.839Z,5.07
2023-02-16T01:18:07.928Z,5.05
2023-02-16T01:20:35.034Z,4.27
2023-02-16T01:23:01.769Z,5.53
2023-02-16T01:25:28.394Z,4.90
2023-02-16T01:27:55.157Z,4.95
2023-02-16T01:30:23.838Z,4.38
2023-02-16T01:32:50.716Z,4.72
2023-02-16T01:35:28.745Z,5.70
2023-02-16T01:37:55.277Z,6.80
2023-02-16T01:40:24.540Z,5.55
2023-02-16T01:42:55.308Z,5.70
2023-02-16T01:45:35.158Z,4.97
2023-02-16T01:48:07.498Z,4.78
2023-02-16T01:50:48.263Z,4.80
2023-02-16T01:53:36.193Z,5.95
2023-02-16T01:56:06.867Z,5.55
2023-02-16T01:58:54.353Z,6.45
2023-02-16T02:01:35.698Z,5.15
2023-02-16T02:04:14.288Z,5.10
2023-02-16T02:06:41.131Z,6.43
2023-02-16T02:09:36.830Z,5.93
2023-02-16T02:12:24.366Z,6.22
2023-02-16T02:14:50.905Z,5.05
2023-02-16T02:17:21.058Z,5.00
2023-02-16T02:20:00.169Z,4.95
2023-02-16T02:22:51.536Z,4.57
2023-02-16T02:25:26.480Z,4.43
2023-02-16T02:27:59.001Z,4.63
2023-02-16T02:30:33.404Z,4.57
2023-02-16T02:33:15.877Z,4.22
2023-02-16T02:35:51.649Z,3.95
2023-02-16T02:38:40.598Z,4.65
2023-02-16T02:41:36.415Z,3.72
2023-02-16T02:44:06.324Z,4.03
2023-02-16T02:46:35.493Z,5.25
2023-02-16T02:49:03.797Z,4.55
2023-02-16T02:51:30.641Z,4.45
2023-02-16T02:54:07.043Z,5.15
2023-02-16T02:56:33.873Z,4.30
2023-02-16T02:59:06.764Z,4.50
2023-02-16T03:01:36.602Z,4.70
2023-02-16T03:04:05.315Z,4.88
2023-02-16T03:06:37.192Z,3.75
2023-02-16T03:09:11.688Z,4.28
2023-02-16T03:11:38.902Z,3.70
2023-02-16T03:14:16.968Z,4.22
2023-02-16T03:16:53.010Z,4.55
2023-02-16T03:19:19.768Z,3.50
2023-02-16T03:21:46.587Z,4.63
2023-02-16T03:24:23.358Z,4.43
2023-02-16T03:26:50.127Z,4.50
2023-02-16T03:29:18.017Z,4.57
2023-02-16T03:31:46.533Z,4.00
2023-02-16T03:34:14.427Z,4.47
2023-02-16T03:36:43.857Z,4.18
2023-02-16T03:39:11.888Z,4.22
2023-02-16T03:44:07.341Z,3.80
2023-02-16T03:46:34.042Z,4.40
2023-02-16T03:49:00.609Z,3.50
2023-02-16T03:51:27.220Z,4.72
2023-02-16T03:53:53.708Z,3.38
2023-02-16T03:56:20.312Z,3.63
2023-02-16T03:58:47.011Z,3.75
2023-02-16T04:01:13.597Z,3.35
2023-02-16T04:03:40.250Z,4.10
2023-02-16T04:06:07.149Z,4.15
2023-02-16T04:08:33.741Z,4.50
2023-02-16T04:11:00.345Z,3.13
2023-02-16T04:13:26.965Z,2.95
2023-02-16T04:15:53.848Z,3.70
2023-02-16T04:18:20.389Z,3.85
2023-02-16T04:20:47.065Z,3.72
2023-02-16T04:23:13.565Z,3.83
2023-02-16T04:25:40.272Z,3.75
2023-02-16T04:28:06.846Z,4.13
2023-02-16T04:30:33.555Z,3.67
2023-02-16T04:33:00.228Z,4.30
2023-02-16T04:35:27.262Z,3.75
2023-02-16T04:37:53.804Z,4.47
2023-02-16T04:40:20.679Z,3.30
2023-02-16T04:42:47.500Z,3.67
2023-02-16T04:45:14.882Z,3.50
2023-02-16T04:47:42.036Z,3.45
2023-02-16T04:50:10.054Z,3.33
2023-02-16T04:55:03.438Z,3.72
2023-02-16T04:57:29.910Z,3.60
2023-02-16T04:59:56.496Z,4.13
2023-02-16T05:02:23.062Z,3.85
2023-02-16T05:04:49.631Z,4.43
2023-02-16T05:07:16.397Z,4.25
2023-02-16T05:09:43.726Z,3.35
2023-02-16T05:12:11.191Z,4.35
2023-02-16T05:14:37.856Z,3.63
2023-02-16T05:17:04.526Z,3.90
2023-02-16T05:19:31.471Z,3.60
2023-02-16T05:21:58.110Z,4.13
2023-02-16T05:24:26.148Z,3.67
2023-02-16T05:26:53.752Z,4.72
2023-02-16T05:29:20.408Z,4.07
2023-02-16T05:31:47.029Z,3.88
2023-02-16T05:34:13.863Z,4.38
2023-02-16T05:36:40.453Z,4.82
2023-02-16T05:39:07.019Z,3.97
2023-02-16T05:41:33.684Z,4.80
2023-02-16T05:44:01.659Z,4.60
2023-02-16T05:48:55.671Z,3.83
2023-02-16T05:51:22.219Z,3.90
2023-02-16T05:53:48.750Z,4.30
2023-02-16T05:56:16.823Z,4.38
2023-02-16T05:58:43.430Z,3.47
2023-02-16T06:01:10.301Z,3.03
2023-02-16T06:03:37.216Z,3.03
2023-02-16T06:06:05.476Z,3.85
2023-02-16T06:08:33.425Z,4.30
2023-02-16T06:11:00.359Z,4.03
2023-02-16T06:13:27.112Z,2.53
2023-02-16T06:15:57.040Z,2.65
2023-02-16T06:18:24.993Z,3.15
2023-02-16T06:20:51.840Z,3.03
2023-02-16T06:23:18.813Z,3.33
2023-02-16T06:25:50.042Z,3.47
2023-02-16T06:28:16.599Z,3.85
2023-02-16T06:30:43.099Z,3.33
2023-02-16T06:33:09.873Z,2.70
2023-02-16T06:35:36.484Z,2.20
2023-02-16T06:38:03.180Z,2.50
2023-02-16T06:40:29.670Z,2.63
2023-02-16T06:42:56.212Z,2.10
2023-02-16T06:45:22.849Z,2.75
2023-02-16T06:47:49.410Z,2.75
2023-02-16T06:50:15.979Z,2.85
2023-02-16T06:52:42.482Z,2.97
2023-02-16T06:55:09.009Z,2.65
2023-02-16T06:57:35.511Z,2.67
2023-02-16T07:00:03.007Z,2.22
2023-02-16T07:02:29.570Z,2.45
2023-02-16T07:04:56.183Z,2.70
2023-02-16T07:07:22.648Z,3.58
2023-02-16T07:09:50.656Z,3.97
2023-02-16T07:12:17.241Z,2.85
2023-02-16T07:14:44.296Z,3.60
2023-02-16T07:17:11.074Z,3.70
2023-02-16T07:19:38.056Z,3.65
2023-02-16T07:22:05.152Z,3.45
2023-02-16T07:24:31.684Z,3.90
2023-02-16T07:27:00.927Z,3.15
2023-02-16T07:29:28.008Z,2.95
2023-02-16T07:31:54.569Z,3.30
2023-02-16T07:34:22.147Z,4.07
2023-02-16T07:36:48.802Z,3.15
2023-02-16T07:39:15.327Z,4.57
2023-02-16T07:41:41.945Z,4.80
2023-02-16T07:44:08.819Z,3.95
2023-02-16T07:46:35.648Z,4.40
2023-02-16T07:49:02.527Z,2.97
2023-02-16T07:51:31.228Z,3.97
2023-02-16T07:53:59.710Z,3.67
2023-02-16T07:56:28.955Z,3.30
2023-02-16T07:58:56.356Z,3.13
2023-02-16T08:01:23.133Z,3.45
2023-02-16T08:03:49.842Z,3.72
2023-02-16T08:06:16.703Z,3.42
2023-02-16T08:08:44.184Z,3.08
2023-02-16T08:11:12.783Z,2.85
2023-02-16T08:13:39.812Z,2.92
2023-02-16T08:16:17.314Z,2.60
2023-02-16T08:18:44.202Z,3.53
2023-02-16T08:21:19.479Z,2.97
2023-02-16T08:23:51.797Z,3.67
2023-02-16T08:26:19.997Z,3.10
2023-02-16T08:31:15.460Z,3.67
2023-02-16T08:33:42.437Z,3.10
2023-02-16T08:36:24.035Z,4.13
2023-02-16T08:38:51.498Z,3.47
2023-02-16T08:41:19.506Z,3.93
2023-02-16T08:46:13.092Z,3.33
2023-02-16T08:48:39.921Z,3.35
2023-02-16T08:51:07.273Z,3.40
2023-02-16T08:53:34.829Z,3.65
2023-02-16T08:56:04.795Z,3.45
2023-02-16T08:58:31.721Z,3.45
2023-02-16T09:00:58.539Z,4.35
2023-02-16T09:03:25.297Z,3.05
2023-02-16T09:05:53.046Z,3.60
2023-02-16T09:08:22.010Z,3.33
2023-02-16T09:10:48.716Z,3.08
2023-02-16T09:13:15.334Z,3.42
2023-02-16T09:15:42.993Z,4.13
2023-02-16T09:18:14.120Z,3.60
2023-02-16T09:20:44.835Z,3.47
2023-02-16T09:23:12.838Z,3.75
2023-02-16T09:25:40.828Z,3.80
2023-02-16T09:28:07.703Z,3.47
2023-02-16T09:30:34.321Z,3.95
2023-02-16T09:33:01.617Z,4.25
2023-02-16T09:35:28.131Z,3.73
2023-02-16T09:37:54.651Z,3.65
2023-02-16T09:40:21.469Z,3.80
2023-02-16T09:43:03.396Z,3.60
2023-02-16T09:45:32.312Z,4.80
2023-02-16T09:47:58.910Z,3.63
2023-02-16T09:50:52.064Z,4.50
2023-02-16T09:53:24.401Z,3.47
2023-02-16T09:56:04.791Z,6.18
2023-02-16T09:58:44.803Z,4.13
2023-02-16T10:01:28.135Z,3.90
2023-02-16T10:04:11.172Z,3.75
2023-02-16T10:06:58.914Z,4.35
2023-02-16T10:12:02.898Z,4.90
2023-02-16T10:14:45.510Z,4.75
2023-02-16T10:17:15.105Z,5.25
2023-02-16T10:19:52.734Z,5.32
2023-02-16T10:22:35.248Z,5.03
2023-02-16T10:25:06.029Z,4.55
2023-02-16T10:27:38.300Z,5.20
2023-02-16T10:30:17.718Z,4.85
2023-02-16T10:32:56.202Z,5.47
2023-02-16T10:35:45.242Z,5.00
2023-02-16T10:38:49.561Z,5.13
2023-02-16T10:41:32.218Z,4.93
2023-02-16T10:44:26.341Z,4.38
2023-02-16T10:47:00.029Z,5.38
2023-02-16T10:49:29.242Z,5.55
2023-02-16T10:51:57.458Z,4.88
2023-02-16T10:56:56.871Z,4.50
2023-02-16T10:59:26.355Z,4.25
2023-02-16T11:01:55.632Z,4.88
2023-02-16T11:04:39.144Z,8.57
2023-02-16T11:07:05.653Z,6.88
2023-02-16T11:09:32.802Z,5.47
2023-02-16T11:11:59.751Z,4.20
2023-02-16T11:14:29.351Z,5.82
2023-02-16T11:17:04.881Z,4.75
2023-02-16T11:19:31.569Z,3.95
2023-02-16T11:21:58.055Z,4.90
2023-02-16T11:24:31.662Z,4.20
2023-02-16T11:27:14.420Z,4.47
2023-02-16T11:29:41.647Z,7.10
2023-02-16T11:32:11.112Z,6.47
2023-02-16T11:34:43.412Z,5.00
2023-02-16T11:37:12.749Z,4.90
2023-02-16T11:39:41.189Z,3.67
2023-02-16T11:42:19.743Z,4.20
2023-02-16T11:44:55.714Z,3.80
2023-02-16T11:47:22.298Z,4.50
2023-02-16T11:50:04.524Z,3.92
2023-02-16T11:52:31.427Z,4.60
2023-02-16T11:55:00.976Z,5.18
2023-02-16T11:57:29.852Z,3.50
2023-02-16T11:59:58.296Z,4.28
2023-02-16T12:02:43.680Z,4.32
2023-02-16T12:05:25.631Z,4.55
2023-02-16T12:08:16.475Z,4.97
2023-02-16T12:10:43.046Z,4.43
2023-02-16T12:13:24.419Z,4.53
2023-02-16T12:16:20.169Z,3.83
2023-02-16T12:18:52.997Z,3.97
2023-02-16T12:21:28.147Z,3.85
2023-02-16T12:24:21.826Z,4.38
2023-02-16T12:26:56.066Z,4.47
2023-02-16T12:29:57.929Z,4.28
2023-02-16T12:32:46.319Z,3.92
2023-02-16T12:35:33.576Z,2.92
2023-02-16T12:38:26.532Z,5.00
2023-02-16T12:41:05.321Z,4.78
2023-02-16T12:43:38.461Z,3.63
2023-02-16T12:46:29.934Z,4.03
2023-02-16T12:49:07.397Z,3.83
2023-02-16T12:51:43.559Z,4.40
2023-02-16T12:54:27.786Z,3.65
2023-02-16T12:57:06.748Z,3.78
2023-02-16T13:00:02.424Z,3.63
2023-02-16T13:02:36.343Z,2.95
2023-02-16T13:05:09.113Z,3.90
2023-02-16T13:07:39.894Z,4.03
2023-02-16T13:10:22.935Z,4.63
2023-02-16T13:13:10.653Z,4.22
2023-02-16T13:15:50.527Z,3.80
2023-02-16T13:18:24.015Z,3.38
2023-02-16T13:20:57.765Z,4.18
2023-02-16T13:23:46.319Z,3.75
2023-02-16T13:26:13.042Z,2.90
2023-02-16T13:28:45.726Z,3.33
2023-02-16T13:31:25.505Z,3.58
2023-02-16T13:34:25.507Z,3.30
2023-02-16T13:36:59.448Z,3.92
2023-02-16T13:39:50.662Z,4.28
2023-02-16T13:42:35.864Z,3.80
2023-02-16T13:45:30.856Z,3.47
2023-02-16T13:47:58.690Z,2.92
2023-02-16T13:50:32.802Z,3.00
2023-02-16T13:53:11.893Z,4.25
2023-02-16T13:55:39.689Z,2.70
2023-02-16T13:58:11.900Z,2.55
2023-02-16T14:00:39.690Z,3.25
2023-02-16T14:03:18.360Z,3.67
2023-02-16T14:05:47.601Z,3.08
2023-02-16T14:08:15.977Z,3.72
2023-02-16T14:10:51.669Z,3.33
2023-02-16T14:13:28.132Z,4.03
2023-02-16T14:15:57.573Z,3.45
2023-02-16T14:18:44.892Z,3.65
2023-02-16T14:21:27.432Z,2.83
2023-02-16T14:23:56.315Z,3.65
2023-02-16T14:26:23.755Z,3.55
2023-02-16T14:29:24.032Z,3.00
2023-02-16T14:31:58.346Z,2.83
2023-02-16T14:34:29.633Z,3.58
2023-02-16T14:37:28.767Z,3.08
2023-02-16T14:40:10.041Z,4.05
2023-02-16T14:42:37.224Z,3.15
2023-02-16T14:45:18.828Z,3.72
2023-02-16T14:47:55.044Z,3.13
2023-02-16T14:50:40.343Z,3.70
2023-02-16T14:53:22.153Z,3.33
2023-02-16T14:56:34.523Z,3.47
2023-02-16T14:59:28.429Z,2.95
2023-02-16T15:01:55.205Z,2.35
2023-02-16T15:04:28.588Z,2.92
2023-02-16T15:06:56.963Z,3.08
2023-02-16T15:09:32.834Z,3.80
2023-02-16T15:12:04.070Z,2.95
2023-02-16T15:14:33.276Z,2.55
2023-02-16T15:16:59.785Z,2.72
2023-02-16T15:19:30.743Z,2.83
2023-02-16T15:22:17.821Z,2.80
2023-02-16T15:24:53.785Z,1.98
2023-02-16T15:27:21.882Z,2.47
2023-02-16T15:30:19.932Z,2.38
2023-02-16T15:32:52.239Z,2.45
2023-02-16T15:35:24.869Z,2.78
2023-02-16T15:38:00.892Z,2.38
2023-02-16T15:40:28.891Z,2.28
2023-02-16T15:42:58.129Z,1.85
2023-02-16T15:45:31.049Z,2.63
2023-02-16T15:48:23.148Z,3.03
2023-02-16T15:50:52.302Z,2.55
2023-02-16T15:53:24.930Z,3.00
2023-02-16T15:55:51.821Z,2.22
2023-02-16T15:58:18.484Z,2.47
2023-02-16T16:00:45.446Z,2.38
2023-02-16T16:03:16.535Z,2.72
2023-02-16T16:05:55.922Z,2.65
2023-02-16T16:08:26.264Z,1.60
2023-02-16T16:10:54.245Z,2.22
2023-02-16T16:13:25.352Z,1.90
2023-02-16T16:15:54.196Z,2.33
2023-02-16T16:18:43.766Z,1.95
2023-02-16T16:21:20.320Z,2.22
2023-02-16T16:24:10.474Z,1.85
2023-02-16T16:26:57.678Z,1.80
2023-02-16T16:29:47.703Z,1.30
2023-02-16T16:32:21.276Z,1.65
2023-02-16T16:34:51.264Z,1.55
2023-02-16T16:37:31.582Z,1.40
2023-02-16T16:40:19.737Z,1.90
2023-02-16T16:43:04.031Z,1.83
2023-02-16T16:45:37.998Z,1.90
2023-02-16T16:48:18.465Z,1.45
2023-02-16T16:50:46.356Z,1.30
2023-02-16T16:53:28.185Z,1.42
2023-02-16T16:55:54.976Z,1.27
2023-02-16T16:58:21.462Z,1.50
2023-02-16T17:00:47.977Z,1.80
2023-02-16T17:03:17.377Z,1.63
2023-02-16T17:05:45.238Z,1.35
2023-02-16T17:08:11.980Z,1.35
2023-02-16T17:10:40.559Z,1.85
2023-02-16T17:13:08.022Z,1.75
2023-02-16T17:16:24.548Z,2.30
2023-02-16T17:18:51.030Z,1.60
2023-02-16T17:21:17.654Z,1.85
2023-02-16T17:23:52.601Z,2.08
2023-02-16T17:26:19.781Z,1.90
2023-02-16T17:28:46.275Z,2.45
2023-02-16T17:31:12.861Z,2.38
2023-02-16T17:33:39.593Z,2.83
2023-02-16T17:36:07.445Z,2.47
2023-02-16T17:38:34.428Z,2.33
2023-02-16T17:41:00.909Z,1.90
2023-02-16T17:43:27.722Z,1.73
2023-02-16T17:45:56.323Z,1.80
2023-02-16T17:48:28.518Z,1.73
2023-02-16T17:50:55.638Z,1.58
2023-02-16T17:53:24.050Z,1.50
2023-02-16T17:55:53.195Z,1.55
2023-02-16T17:58:20.880Z,2.40
2023-02-16T18:00:47.522Z,2.10
2023-02-16T18:03:14.242Z,2.30
2023-02-16T18:05:40.779Z,1.60
2023-02-16T18:08:07.531Z,2.03
2023-02-16T18:10:45.937Z,1.20
2023-02-16T18:13:13.529Z,1.30
2023-02-16T18:15:42.681Z,2.33
2023-02-16T18:18:09.338Z,1.30
2023-02-16T18:20:36.233Z,1.42
2023-02-16T18:23:02.747Z,1.60
2023-02-16T18:25:29.450Z,1.50
2023-02-16T18:27:55.932Z,1.63
2023-02-16T18:30:22.648Z,1.63
2023-02-16T18:32:49.669Z,1.67
2023-02-16T18:35:17.285Z,2.95
2023-02-16T18:37:45.495Z,3.22
2023-02-16T18:40:15.745Z,4.40
2023-02-16T18:42:42.578Z,3.03
2023-02-16T18:45:09.529Z,3.60
2023-02-16T18:47:36.209Z,3.60
2023-02-16T18:50:04.347Z,3.70
2023-02-16T18:54:57.388Z,1.90
2023-02-16T18:57:23.886Z,1.70
2023-02-16T18:59:50.467Z,1.92
2023-02-16T19:02:17.200Z,2.22
2023-02-16T19:04:43.752Z,2.03
2023-02-16T19:07:10.363Z,1.48
2023-02-16T19:09:36.976Z,1.90
2023-02-16T19:12:03.738Z,1.60
2023-02-16T19:14:30.211Z,1.27
2023-02-16T19:16:56.824Z,1.40
2023-02-16T19:19:23.399Z,1.75
2023-02-16T19:21:49.974Z,2.05
2023-02-16T19:24:16.516Z,3.28
2023-02-16T19:26:43.244Z,1.15
2023-02-16T19:29:09.753Z,1.30
2023-02-16T19:31:36.390Z,1.90
2023-02-16T19:34:03.008Z,2.60
2023-02-16T19:36:30.705Z,2.22
2023-02-16T19:38:57.273Z,1.73
2023-02-16T19:41:27.216Z,1.38
2023-02-16T19:43:54.474Z,1.70
2023-02-16T19:46:21.965Z,1.40
2023-02-16T19:48:48.648Z,1.40
2023-02-16T19:51:16.183Z,1.52
2023-02-16T19:53:43.501Z,1.77
2023-02-16T19:56:14.426Z,1.80
2023-02-16T19:58:41.552Z,2.03
2023-02-16T20:01:13.254Z,2.13
2023-02-16T20:03:39.927Z,1.58
2023-02-16T20:06:24.706Z,1.92
2023-02-16T20:08:53.431Z,1.90
2023-02-16T20:11:21.944Z,2.45
2023-02-16T20:13:48.724Z,2.30
2023-02-16T20:16:16.526Z,1.77
2023-02-16T20:18:43.776Z,2.58
2023-02-16T20:21:15.874Z,2.17
2023-02-16T20:23:42.701Z,2.58
2023-02-16T20:26:15.426Z,2.00
2023-02-16T20:28:42.118Z,1.45
2023-02-16T20:31:25.392Z,1.58
2023-02-16T20:33:54.567Z,1.80
2023-02-16T20:36:22.017Z,2.13
2023-02-16T20:38:49.193Z,3.08
2023-02-16T20:41:16.931Z,2.40
2023-02-16T20:43:43.427Z,2.65
2023-02-16T20:46:12.818Z,1.95
2023-02-16T20:48:39.539Z,2.50
2023-02-16T20:51:07.547Z,2.15
2023-02-16T20:53:35.750Z,1.95
2023-02-16T21:00:57.025Z,1.70
2023-02-16T21:03:24.121Z,1.80
2023-02-16T21:05:50.645Z,2.03
2023-02-16T21:08:17.097Z,1.88
2023-02-16T21:10:43.661Z,1.85
2023-02-16T21:13:10.241Z,1.73
2023-02-16T21:15:36.736Z,1.88
2023-02-16T21:18:03.304Z,1.52
2023-02-16T21:20:30.007Z,1.35
2023-02-16T21:22:56.593Z,1.50
2023-02-16T21:25:23.072Z,1.40
2023-02-16T21:27:49.552Z,1.60
2023-02-16T21:30:16.138Z,1.75
2023-02-16T21:32:42.725Z,2.15
2023-02-16T21:35:09.253Z,1.92
2023-02-16T21:37:35.883Z,1.92
2023-02-16T21:40:02.447Z,1.45
2023-02-16T21:42:28.994Z,1.92
2023-02-16T21:44:55.727Z,1.80
2023-02-16T21:47:22.306Z,1.98
2023-02-16T21:49:48.828Z,1.80
2023-02-16T21:52:15.340Z,2.03
2023-02-16T21:54:41.933Z,1.80
2023-02-16T21:57:08.405Z,1.40
2023-02-16T21:59:35.160Z,1.80
2023-02-16T22:02:01.621Z,2.15
2023-02-16T22:04:28.103Z,3.55
2023-02-16T22:06:54.844Z,2.90
2023-02-16T22:09:23.317Z,2.28
2023-02-16T22:11:50.740Z,2.00
2023-02-16T22:14:17.898Z,2.33
2023-02-16T22:16:46.542Z,3.00
2023-02-16T22:19:15.079Z,2.25
2023-02-16T22:21:43.911Z,2.10
2023-02-16T22:24:13.328Z,2.22
2023-02-16T22:26:40.162Z,2.85
2023-02-16T22:29:07.684Z,2.80
2023-02-16T22:31:35.269Z,1.98
2023-02-16T22:34:08.200Z,2.05
2023-02-16T22:36:36.623Z,2.42
2023-02-16T22:41:30.107Z,1.73
2023-02-16T22:43:57.447Z,1.92
2023-02-16T22:46:24.677Z,2.37
2023-02-16T22:48:52.181Z,2.20
2023-02-16T22:51:20.642Z,2.38
2023-02-16T22:53:47.569Z,2.38
2023-02-16T22:56:16.319Z,1.95
2023-02-16T22:58:43.187Z,2.60
2023-02-16T23:01:18.046Z,2.35
2023-02-16T23:03:49.856Z,2.78
2023-02-16T23:06:19.752Z,2.65
2023-02-16T23:08:50.818Z,2.92
2023-02-16T23:11:17.448Z,2.78
2023-02-16T23:13:44.358Z,2.63
2023-02-16T23:16:13.767Z,3.03
2023-02-16T23:18:40.917Z,2.33
2023-02-16T23:21:16.299Z,2.63
2023-02-16T23:23:43.484Z,2.75
2023-02-16T23:26:10.489Z,3.00
2023-02-16T23:28:39.083Z,2.50
2023-02-16T23:31:05.947Z,2.20
2023-02-16T23:33:33.169Z,2.17
2023-02-16T23:36:00.142Z,2.60
2023-02-16T23:38:26.645Z,2.63
2023-02-16T23:40:57.642Z,2.30
2023-02-16T23:43:24.917Z,2.10
2023-02-16T23:45:51.851Z,2.17
2023-02-16T23:48:18.440Z,2.55
2023-02-16T23:50:45.252Z,2.30
2023-02-16T23:53:11.916Z,2.53
2023-02-16T23:55:38.439Z,3.38
2023-02-16T23:58:04.975Z,2.33
